createdAt,value
2023-05-09T00:03:40.126Z,40.98
2023-05-09T00:07:41.701Z,41.14
2023-05-09T00:11:40.292Z,41.09
2023-05-09T00:15:42.128Z,40.77
2023-05-09T00:19:40.377Z,40.92
2023-05-09T00:23:41.607Z,40.96
2023-05-09T00:27:40.335Z,40.92
2023-05-09T00:31:42.220Z,40.99
2023-05-09T00:35:40.249Z,41.07
2023-05-09T00:39:41.743Z,40.86
2023-05-09T00:43:40.320Z,40.75
2023-05-09T00:47:41.925Z,40.73
2023-05-09T00:51:40.391Z,41.00
2023-05-09T00:55:41.724Z,40.89
2023-05-09T00:59:40.244Z,41.00
2023-05-09T01:03:41.822Z,40.94
2023-05-09T01:07:39.353Z,41.13
2023-05-09T01:11:38.259Z,40.75
2023-05-09T01:15:33.660Z,40.97
2023-05-09T01:19:33.111Z,42.22
2023-05-09T01:23:28.563Z,43.50
2023-05-09T01:27:28.099Z,44.33
2023-05-09T01:31:13.238Z,45.04
2023-05-09T01:34:58.622Z,46.37
2023-05-09T01:38:43.839Z,47.07
2023-05-09T01:42:28.738Z,48.17
2023-05-09T01:46:13.796Z,48.84
2023-05-09T01:49:58.890Z,49.68
2023-05-09T01:53:43.819Z,50.83
2023-05-09T01:57:28.686Z,51.38
2023-05-09T02:01:20.998Z,53.05
2023-05-09T02:05:18.426Z,55.09
2023-05-09T02:09:13.519Z,57.06
2023-05-09T02:13:13.422Z,59.11
2023-05-09T02:17:08.482Z,60.53
2023-05-09T02:21:07.745Z,61.33
2023-05-09T02:25:03.560Z,62.36
2023-05-09T02:29:02.573Z,62.44
2023-05-09T02:32:57.495Z,63.22
2023-05-09T02:36:54.497Z,63.74
2023-05-09T02:40:39.609Z,65.61
2023-05-09T02:44:24.432Z,67.86
2023-05-09T02:48:09.795Z,69.32
2023-05-09T02:51:54.980Z,71.99
2023-05-09T02:55:40.085Z,73.86
2023-05-09T02:59:25.169Z,75.42
2023-05-09T03:03:11.036Z,76.75
2023-05-09T03:07:15.394Z,76.68
2023-05-09T03:11:17.088Z,77.65
2023-05-09T03:15:17.445Z,77.92
2023-05-09T03:19:20.487Z,76.81
2023-05-09T03:23:18.580Z,76.09
2023-05-09T03:27:20.369Z,75.70
2023-05-09T03:31:18.557Z,75.68
2023-05-09T03:35:20.210Z,75.52
2023-05-09T03:39:18.496Z,75.03
2023-05-09T03:43:21.509Z,74.16
2023-05-09T03:47:19.482Z,68.77
2023-05-09T03:51:21.300Z,63.13
2023-05-09T03:55:20.648Z,56.35
2023-05-09T03:59:22.522Z,51.15
2023-05-09T04:03:21.742Z,51.64
2023-05-09T04:07:24.385Z,48.89
2023-05-09T04:11:23.630Z,48.41
2023-05-09T04:15:24.688Z,46.24
2023-05-09T04:19:23.596Z,46.63
2023-05-09T04:23:25.021Z,46.11
2023-05-09T04:27:24.521Z,45.09
2023-05-09T04:31:27.337Z,44.08
2023-05-09T04:35:25.439Z,44.48
2023-05-09T04:39:27.566Z,42.86
2023-05-09T04:43:34.681Z,42.62
2023-05-09T04:47:36.841Z,41.75
2023-05-09T04:51:35.675Z,41.11
2023-05-09T04:55:37.216Z,40.49
2023-05-09T04:59:35.634Z,39.78
2023-05-09T05:03:36.666Z,39.10
2023-05-09T05:07:35.519Z,38.67
2023-05-09T05:11:37.251Z,38.70
2023-05-09T05:15:34.259Z,37.31
2023-05-09T05:19:26.059Z,37.60
2023-05-09T05:23:19.495Z,38.75
2023-05-09T05:27:18.905Z,37.20
2023-05-09T05:31:15.158Z,35.82
2023-05-09T05:35:15.228Z,36.00
2023-05-09T05:39:11.148Z,36.44
2023-05-09T05:43:10.520Z,34.82
2023-05-09T05:47:06.919Z,35.02
2023-05-09T05:51:06.818Z,35.01
2023-05-09T05:55:03.942Z,34.37
2023-05-09T05:59:01.139Z,34.74
2023-05-09T06:02:46.543Z,33.64
2023-05-09T06:06:37.982Z,32.61
2023-05-09T06:10:23.130Z,33.50
2023-05-09T06:14:08.310Z,32.90
2023-05-09T06:17:53.740Z,33.25
2023-05-09T06:21:40.020Z,32.77
2023-05-09T06:25:24.813Z,32.18
2023-05-09T06:29:10.130Z,30.89
2023-05-09T06:33:01.155Z,30.79
2023-05-09T06:36:46.404Z,29.93
2023-05-09T06:40:31.300Z,29.68
2023-05-09T06:44:16.530Z,29.06
2023-05-09T06:48:01.808Z,29.12
2023-05-09T06:51:53.160Z,29.46
2023-05-09T06:55:44.602Z,30.05
2023-05-09T06:59:35.981Z,29.52
2023-05-09T07:03:29.405Z,28.91
2023-05-09T07:07:33.930Z,29.77
2023-05-09T07:11:35.568Z,28.64
2023-05-09T07:15:42.035Z,28.47
2023-05-09T07:19:45.919Z,28.31
2023-05-09T07:23:43.935Z,28.89
2023-05-09T07:27:45.326Z,27.42
2023-05-09T07:31:44.635Z,27.22
2023-05-09T07:35:46.984Z,26.71
2023-05-09T07:39:44.893Z,27.36
2023-05-09T07:43:46.450Z,27.15
2023-05-09T07:47:44.897Z,27.66
2023-05-09T07:51:46.461Z,26.53
2023-05-09T07:55:43.925Z,26.20
2023-05-09T07:59:45.465Z,26.26
2023-05-09T08:03:44.155Z,26.27
2023-05-09T08:07:45.909Z,25.55
2023-05-09T08:11:44.094Z,25.78
2023-05-09T08:15:45.573Z,26.50
2023-05-09T08:19:44.013Z,26.73
2023-05-09T08:23:45.610Z,25.43
2023-05-09T08:27:44.050Z,25.31
2023-05-09T08:31:43.369Z,25.05
2023-05-09T08:35:42.243Z,24.39
2023-05-09T08:39:43.437Z,24.40
2023-05-09T08:43:42.006Z,25.32
2023-05-09T08:47:43.607Z,24.30
2023-05-09T08:51:42.114Z,25.11
2023-05-09T08:55:43.447Z,25.34
2023-05-09T08:59:42.165Z,24.78
2023-05-09T09:03:43.543Z,25.09
2023-05-09T09:07:41.525Z,26.33
2023-05-09T09:11:40.744Z,25.10
2023-05-09T09:15:32.393Z,25.59
2023-05-09T09:19:32.011Z,25.26
2023-05-09T09:23:27.411Z,25.43
2023-05-09T09:27:27.403Z,24.16
2023-05-09T09:31:23.508Z,23.77
2023-05-09T09:35:23.108Z,22.91
2023-05-09T09:39:18.293Z,23.93
2023-05-09T09:43:11.410Z,25.84
2023-05-09T09:47:07.376Z,24.75
2023-05-09T09:51:00.451Z,24.53
2023-05-09T09:54:56.633Z,24.58
2023-05-09T09:58:56.422Z,24.83
2023-05-09T10:02:52.544Z,24.27
2023-05-09T10:06:49.859Z,24.05
2023-05-09T10:10:45.705Z,25.80
2023-05-09T10:14:45.073Z,24.58
2023-05-09T10:18:40.539Z,24.82
2023-05-09T10:22:39.593Z,24.05
2023-05-09T10:26:35.678Z,23.88
2023-05-09T10:30:34.976Z,23.81
2023-05-09T10:34:30.389Z,23.03
2023-05-09T10:38:29.263Z,22.65
2023-05-09T10:42:24.418Z,23.70
2023-05-09T10:46:23.372Z,24.15
2023-05-09T10:50:21.065Z,22.29
2023-05-09T10:54:20.252Z,24.39
2023-05-09T10:58:15.435Z,24.35
2023-05-09T11:02:08.987Z,23.39
2023-05-09T11:06:13.285Z,24.08
2023-05-09T11:10:14.921Z,23.85
2023-05-09T11:14:13.185Z,24.20
2023-05-09T11:18:15.318Z,25.05
2023-05-09T11:22:14.290Z,23.58
2023-05-09T11:26:15.588Z,23.72
2023-05-09T11:30:15.844Z,24.12
2023-05-09T11:34:13.705Z,23.44
2023-05-09T11:38:15.422Z,23.67
2023-05-09T11:42:13.391Z,23.87
2023-05-09T11:46:14.969Z,24.52
2023-05-09T11:50:13.444Z,24.04
2023-05-09T11:54:14.815Z,23.72
2023-05-09T11:58:14.762Z,23.76
2023-05-09T12:02:16.576Z,23.50
2023-05-09T12:06:15.353Z,24.04
2023-05-09T12:10:17.122Z,21.92
2023-05-09T12:14:15.570Z,23.01
2023-05-09T12:18:17.278Z,23.32
2023-05-09T12:22:15.591Z,21.44
2023-05-09T12:26:16.951Z,22.24
2023-05-09T12:30:15.540Z,21.92
2023-05-09T12:34:17.354Z,21.90
2023-05-09T12:38:14.321Z,22.89
2023-05-09T12:42:15.898Z,23.01
2023-05-09T12:46:14.649Z,23.02
2023-05-09T12:50:16.370Z,23.09
2023-05-09T12:54:14.325Z,22.54
2023-05-09T12:58:15.956Z,22.89
2023-05-09T13:02:14.466Z,23.31
2023-05-09T13:06:16.114Z,23.15
2023-05-09T13:10:13.649Z,23.27
2023-05-09T13:14:14.014Z,22.99
2023-05-09T13:18:11.726Z,22.26
2023-05-09T13:22:12.452Z,21.68
2023-05-09T13:26:09.590Z,21.50
2023-05-09T13:30:12.292Z,21.62
2023-05-09T13:34:10.104Z,20.87
2023-05-09T13:38:10.133Z,21.64
2023-05-09T13:42:07.815Z,21.80
2023-05-09T13:46:07.760Z,21.29
2023-05-09T13:50:05.414Z,21.03
2023-05-09T13:54:05.039Z,20.67
2023-05-09T13:58:02.816Z,21.11
2023-05-09T14:02:03.230Z,21.10
2023-05-09T14:06:00.689Z,20.50
2023-05-09T14:10:11.388Z,20.53
2023-05-09T14:14:10.039Z,21.26
2023-05-09T14:18:10.308Z,21.56
2023-05-09T14:22:07.939Z,22.29
2023-05-09T14:26:08.223Z,22.42
2023-05-09T14:30:05.901Z,23.46
2023-05-09T14:34:06.167Z,23.44
2023-05-09T14:38:03.643Z,24.17
2023-05-09T14:42:03.256Z,24.50
2023-05-09T14:46:00.690Z,24.22
2023-05-09T14:50:00.218Z,24.00
2023-05-09T14:53:58.155Z,24.61
2023-05-09T14:57:58.421Z,24.86
2023-05-09T15:01:55.947Z,25.21
2023-05-09T15:05:53.345Z,25.25
2023-05-09T15:09:50.904Z,25.52
2023-05-09T15:13:44.461Z,25.59
2023-05-09T15:17:40.266Z,25.23
2023-05-09T15:21:36.010Z,24.90
2023-05-09T15:25:33.628Z,24.58
2023-05-09T15:29:32.914Z,25.17
2023-05-09T15:33:29.055Z,24.62
2023-05-09T15:37:28.685Z,24.54
2023-05-09T15:41:23.763Z,25.38
2023-05-09T15:45:23.203Z,25.43
2023-05-09T15:49:18.935Z,25.73
2023-05-09T15:53:17.936Z,25.88
2023-05-09T15:57:12.874Z,25.83
2023-05-09T16:01:11.974Z,25.96
2023-05-09T16:05:08.103Z,25.35
2023-05-09T16:08:53.160Z,24.97
2023-05-09T16:12:38.028Z,24.58
2023-05-09T16:16:23.130Z,24.64
2023-05-09T16:20:08.643Z,24.63
2023-05-09T16:23:53.656Z,24.49
2023-05-09T16:27:38.731Z,25.12
2023-05-09T16:31:23.963Z,25.23
2023-05-09T16:35:17.342Z,25.72
2023-05-09T16:39:13.006Z,25.63
2023-05-09T16:43:12.025Z,26.06
2023-05-09T16:47:07.442Z,26.42
2023-05-09T16:51:06.942Z,26.30
2023-05-09T16:55:02.202Z,26.40
2023-05-09T16:59:01.629Z,26.37
2023-05-09T17:02:57.437Z,26.49
2023-05-09T17:06:56.702Z,26.40
2023-05-09T17:10:49.138Z,26.38
2023-05-09T17:14:34.389Z,26.02
2023-05-09T17:18:33.198Z,26.33
2023-05-09T17:22:22.165Z,26.97
2023-05-09T17:26:13.249Z,27.67
2023-05-09T17:30:04.934Z,28.02
2023-05-09T17:33:56.139Z,28.76
2023-05-09T17:37:55.804Z,29.39
2023-05-09T17:41:51.641Z,29.61
2023-05-09T17:45:51.121Z,29.62
2023-05-09T17:49:47.401Z,29.43
2023-05-09T17:53:46.846Z,30.25
2023-05-09T17:57:42.339Z,30.62
2023-05-09T18:01:41.896Z,30.88
2023-05-09T18:05:37.350Z,31.38
2023-05-09T18:09:22.834Z,31.66
2023-05-09T18:13:08.230Z,32.15
2023-05-09T18:16:53.248Z,32.60
2023-05-09T18:20:38.529Z,32.75
2023-05-09T18:24:24.056Z,32.90
2023-05-09T18:28:09.070Z,32.80
2023-05-09T18:32:01.156Z,32.88
2023-05-09T18:35:56.644Z,32.95
2023-05-09T18:39:56.332Z,33.47
2023-05-09T18:43:52.599Z,33.95
2023-05-09T18:47:51.520Z,34.32
2023-05-09T18:51:47.502Z,34.26
2023-05-09T18:55:46.810Z,34.29
2023-05-09T18:59:42.355Z,34.55
2023-05-09T19:03:33.615Z,34.28
2023-05-09T19:07:18.829Z,35.53
2023-05-09T19:11:03.738Z,36.72
2023-05-09T19:14:48.869Z,36.97
2023-05-09T19:18:33.883Z,37.48
2023-05-09T19:22:25.179Z,38.14
2023-05-09T19:26:17.394Z,37.88
2023-05-09T19:30:08.343Z,37.54
2023-05-09T19:34:07.625Z,37.57
2023-05-09T19:38:06.996Z,37.53
2023-05-09T19:42:02.576Z,37.34
2023-05-09T19:46:01.948Z,37.33
2023-05-09T19:49:57.135Z,37.27
2023-05-09T19:53:56.644Z,36.81
2023-05-09T19:57:41.774Z,36.57
2023-05-09T20:01:26.916Z,36.20
2023-05-09T20:05:12.101Z,35.59
2023-05-09T20:08:57.073Z,35.23
2023-05-09T20:12:42.388Z,35.86
2023-05-09T20:16:27.390Z,36.15
2023-05-09T20:20:14.868Z,36.51
2023-05-09T20:24:06.238Z,36.27
2023-05-09T20:27:57.492Z,36.02
2023-05-09T20:31:49.625Z,35.76
2023-05-09T20:35:48.944Z,35.40
2023-05-09T20:39:44.464Z,35.80
2023-05-09T20:43:44.144Z,36.21
2023-05-09T20:47:43.788Z,36.57
2023-05-09T20:51:39.672Z,36.51
2023-05-09T20:55:38.868Z,36.35
2023-05-09T20:59:34.556Z,36.62
2023-05-09T21:03:34.046Z,37.88
2023-05-09T21:07:19.041Z,38.24
2023-05-09T21:11:04.063Z,38.21
2023-05-09T21:14:49.193Z,38.39
2023-05-09T21:18:34.341Z,38.28
2023-05-09T21:22:19.437Z,37.74
2023-05-09T21:26:04.614Z,36.69
2023-05-09T21:29:49.812Z,35.97
2023-05-09T21:33:40.657Z,36.38
2023-05-09T21:37:33.922Z,36.51
2023-05-09T21:41:33.203Z,36.51
2023-05-09T21:45:28.457Z,37.14
2023-05-09T21:49:27.698Z,37.06
2023-05-09T21:53:23.553Z,37.10
2023-05-09T21:57:22.675Z,37.39
2023-05-09T22:01:18.605Z,37.33
2023-05-09T22:05:18.390Z,36.79
2023-05-09T22:09:13.802Z,35.50
2023-05-09T22:13:13.301Z,34.49
2023-05-09T22:17:08.356Z,34.44
2023-05-09T22:21:07.807Z,35.09
2023-05-09T22:25:03.486Z,35.13
2023-05-09T22:29:02.653Z,35.13
2023-05-09T22:32:58.546Z,35.72
2023-05-09T22:36:57.839Z,35.42
2023-05-09T22:40:53.692Z,34.63
2023-05-09T22:44:53.363Z,35.18
2023-05-09T22:48:49.217Z,34.96
2023-05-09T22:52:48.707Z,34.87
2023-05-09T22:56:44.550Z,34.92
2023-05-09T23:00:43.629Z,35.11
2023-05-09T23:04:39.691Z,34.91
2023-05-09T23:08:43.741Z,34.62
2023-05-09T23:12:45.518Z,33.44
2023-05-09T23:16:43.476Z,34.30
2023-05-09T23:20:45.003Z,35.25
2023-05-09T23:24:43.633Z,36.04
2023-05-09T23:28:45.100Z,36.61
2023-05-09T23:32:43.586Z,37.37
2023-05-09T23:36:45.104Z,37.19
2023-05-09T23:40:43.565Z,36.42
2023-05-09T23:44:44.988Z,37.59
2023-05-09T23:48:43.588Z,39.03
2023-05-09T23:52:45.130Z,38.82
2023-05-09T23:56:43.463Z,39.31
